createdAt,value
2019-03-27T00:01:19.351Z,16.73
2019-03-27T00:03:47.635Z,18.60
2019-03-27T00:06:15.915Z,18.00
2019-03-27T00:08:44.179Z,18.30
2019-03-27T00:11:15.864Z,18.13
2019-03-27T00:13:42.444Z,18.60
2019-03-27T00:16:10.776Z,22.13
2019-03-27T00:18:39.052Z,15.63
2019-03-27T00:21:07.308Z,19.77
2019-03-27T00:23:35.583Z,21.60
2019-03-27T00:26:03.843Z,18.83
2019-03-27T00:28:32.133Z,17.97
2019-03-27T00:31:00.420Z,15.10
2019-03-27T00:33:28.706Z,18.13
2019-03-27T00:35:56.989Z,19.43
2019-03-27T00:38:25.254Z,18.73
2019-03-27T00:40:53.597Z,16.70
2019-03-27T00:43:21.980Z,16.90
2019-03-27T00:45:50.249Z,18.07
2019-03-27T00:48:19.386Z,16.40
2019-03-27T00:50:47.738Z,21.00
2019-03-27T00:53:16.004Z,19.13
2019-03-27T00:55:44.285Z,19.67
2019-03-27T00:58:12.568Z,21.23
2019-03-27T01:00:46.944Z,18.07
2019-03-27T01:03:15.223Z,18.20
2019-03-27T01:05:43.477Z,20.20
2019-03-27T01:08:11.766Z,20.13
2019-03-27T01:10:40.037Z,20.73
2019-03-27T01:13:08.871Z,19.03
2019-03-27T01:15:40.098Z,16.50
2019-03-27T01:18:07.133Z,17.07
2019-03-27T01:20:36.647Z,17.90
2019-03-27T01:23:04.924Z,21.07
2019-03-27T01:25:33.213Z,18.57
2019-03-27T01:28:01.468Z,18.63
2019-03-27T01:30:29.768Z,17.30
2019-03-27T01:32:58.017Z,18.67
2019-03-27T01:35:26.353Z,19.13
2019-03-27T01:37:55.287Z,19.93
2019-03-27T01:40:23.558Z,16.47
2019-03-27T01:42:51.872Z,17.00
2019-03-27T01:45:20.130Z,14.93
2019-03-27T01:47:48.414Z,15.90
2019-03-27T01:50:16.751Z,18.30
2019-03-27T01:52:45.031Z,14.70
2019-03-27T01:55:13.302Z,17.20
2019-03-27T01:57:41.576Z,17.20
2019-03-27T02:00:09.908Z,15.40
2019-03-27T02:02:38.176Z,17.37
2019-03-27T02:05:07.325Z,13.50
2019-03-27T02:07:35.601Z,14.37
2019-03-27T02:10:07.287Z,13.97
2019-03-27T02:12:35.549Z,18.77
2019-03-27T02:15:05.614Z,14.20
2019-03-27T02:17:33.882Z,16.10
2019-03-27T02:20:02.147Z,16.80
2019-03-27T02:22:30.422Z,15.10
2019-03-27T02:24:58.700Z,13.53
2019-03-27T02:27:26.969Z,14.53
2019-03-27T02:29:55.247Z,16.10
2019-03-27T02:32:23.513Z,15.60
2019-03-27T02:34:51.792Z,20.40
2019-03-27T02:37:20.048Z,14.60
2019-03-27T02:39:48.337Z,21.67
2019-03-27T02:42:17.710Z,14.40
2019-03-27T02:44:46.001Z,15.10
2019-03-27T02:47:14.278Z,15.67
2019-03-27T02:49:42.540Z,16.70
2019-03-27T02:52:10.810Z,15.87
2019-03-27T02:54:39.070Z,20.30
2019-03-27T02:57:07.333Z,17.27
2019-03-27T02:59:35.627Z,19.87
2019-03-27T03:02:03.964Z,16.70
2019-03-27T03:04:32.241Z,20.27
2019-03-27T03:07:00.587Z,20.00
2019-03-27T03:09:28.876Z,20.50
2019-03-27T03:11:57.164Z,18.60
2019-03-27T03:14:25.427Z,18.97
2019-03-27T03:16:53.711Z,18.57
2019-03-27T03:19:21.985Z,21.17
2019-03-27T03:21:50.272Z,18.70
2019-03-27T03:24:18.526Z,18.23
2019-03-27T03:26:50.646Z,18.60
2019-03-27T03:29:16.789Z,18.40
2019-03-27T03:31:45.101Z,20.73
2019-03-27T03:34:13.329Z,18.20
2019-03-27T03:36:41.593Z,19.03
2019-03-27T03:39:09.858Z,20.40
2019-03-27T03:41:39.125Z,23.50
2019-03-27T03:44:07.397Z,16.80
2019-03-27T03:46:35.703Z,16.27
2019-03-27T03:49:03.978Z,18.63
2019-03-27T03:51:32.293Z,22.23
2019-03-27T03:54:00.648Z,20.70
2019-03-27T03:56:29.570Z,20.67
2019-03-27T03:58:58.704Z,21.83
2019-03-27T04:01:27.466Z,18.90
2019-03-27T04:03:57.489Z,23.70
2019-03-27T04:06:25.805Z,22.57
2019-03-27T04:08:54.089Z,20.30
2019-03-27T04:11:22.401Z,19.27
2019-03-27T04:13:50.660Z,19.17
2019-03-27T04:16:18.911Z,21.17
2019-03-27T04:18:47.207Z,25.60
2019-03-27T04:21:15.455Z,21.43
2019-03-27T04:23:43.734Z,21.97
2019-03-27T04:26:11.998Z,20.80
2019-03-27T04:28:40.261Z,20.60
2019-03-27T04:31:08.545Z,28.70
2019-03-27T04:33:36.822Z,21.50
2019-03-27T04:36:05.092Z,23.03
2019-03-27T04:38:33.351Z,24.87
2019-03-27T04:41:01.635Z,26.93
2019-03-27T04:43:29.902Z,24.23
2019-03-27T04:45:58.198Z,22.40
2019-03-27T04:48:26.543Z,27.43
2019-03-27T04:50:54.870Z,21.77
2019-03-27T04:53:23.356Z,24.00
2019-03-27T04:55:51.644Z,22.80
2019-03-27T04:58:22.638Z,22.00
2019-03-27T05:00:50.934Z,26.83
2019-03-27T05:03:20.208Z,24.10
2019-03-27T05:05:50.561Z,22.90
2019-03-27T05:08:18.808Z,30.73
2019-03-27T05:10:47.078Z,30.03
2019-03-27T05:13:15.354Z,25.60
2019-03-27T05:15:43.623Z,27.33
2019-03-27T05:18:11.883Z,27.47
2019-03-27T05:20:40.154Z,27.90
2019-03-27T05:23:08.424Z,30.27
2019-03-27T05:25:36.691Z,25.77
2019-03-27T05:28:04.955Z,31.27
2019-03-27T05:30:33.224Z,22.30
2019-03-27T05:33:01.579Z,28.83
2019-03-27T05:35:29.838Z,23.57
2019-03-27T05:37:58.098Z,25.83
2019-03-27T05:40:26.375Z,33.33
2019-03-27T05:43:00.606Z,30.03
2019-03-27T05:45:24.633Z,27.63
2019-03-27T05:47:59.273Z,25.60
2019-03-27T05:50:22.893Z,31.40
2019-03-27T05:52:51.178Z,30.83
2019-03-27T05:55:19.517Z,29.50
2019-03-27T05:57:47.781Z,25.60
2019-03-27T06:00:17.761Z,32.40
2019-03-27T06:02:46.093Z,26.50
2019-03-27T06:05:14.323Z,26.07
2019-03-27T06:07:42.621Z,29.87
2019-03-27T06:10:11.218Z,31.70
2019-03-27T06:12:39.485Z,26.77
2019-03-27T06:15:07.756Z,26.23
2019-03-27T06:17:36.061Z,35.40
2019-03-27T06:20:05.878Z,30.57
2019-03-27T06:22:34.149Z,32.70
2019-03-27T06:25:02.447Z,39.33
2019-03-27T06:27:30.725Z,33.03
2019-03-27T06:29:58.999Z,30.87
2019-03-27T06:32:27.259Z,29.57
2019-03-27T06:34:55.522Z,29.83
2019-03-27T06:37:23.812Z,28.40
2019-03-27T06:39:52.092Z,28.67
2019-03-27T06:42:20.393Z,32.83
2019-03-27T06:44:48.667Z,27.03
2019-03-27T06:47:16.945Z,33.57
2019-03-27T06:49:45.223Z,27.87
2019-03-27T06:52:13.493Z,30.13
2019-03-27T06:54:41.767Z,30.20
2019-03-27T06:57:10.032Z,31.17
2019-03-27T06:59:38.300Z,29.00
2019-03-27T07:02:06.540Z,30.07
2019-03-27T07:04:34.818Z,29.33
2019-03-27T07:07:03.089Z,30.33
2019-03-27T07:09:31.365Z,28.47
2019-03-27T07:11:59.648Z,29.83
2019-03-27T07:14:27.949Z,31.40
2019-03-27T07:16:56.256Z,34.13
2019-03-27T07:19:24.589Z,33.00
2019-03-27T07:21:52.783Z,32.07
2019-03-27T07:24:21.063Z,30.17
2019-03-27T07:26:49.323Z,33.67
2019-03-27T07:29:19.071Z,29.63
2019-03-27T07:31:47.655Z,31.33
2019-03-27T07:34:15.952Z,29.63
2019-03-27T07:36:44.216Z,32.40
2019-03-27T07:39:12.570Z,29.27
2019-03-27T07:41:40.873Z,34.13
2019-03-27T07:44:09.129Z,28.87
2019-03-27T07:46:37.512Z,33.27
2019-03-27T07:49:06.030Z,29.47
2019-03-27T07:51:34.910Z,28.60
2019-03-27T07:54:03.311Z,29.00
2019-03-27T07:56:34.722Z,27.73
2019-03-27T07:59:06.742Z,24.70
2019-03-27T08:01:36.079Z,29.07
2019-03-27T08:04:04.483Z,26.57
2019-03-27T08:06:32.841Z,30.63
2019-03-27T08:09:01.111Z,27.37
2019-03-27T08:11:29.526Z,23.47
2019-03-27T08:13:57.934Z,23.97
2019-03-27T08:16:26.227Z,19.63
2019-03-27T08:19:06.972Z,20.17
2019-03-27T08:21:24.550Z,23.43
2019-03-27T08:23:52.846Z,20.77
2019-03-27T08:26:21.105Z,30.83
2019-03-27T08:28:49.399Z,18.00
2019-03-27T08:31:17.671Z,22.63
2019-03-27T08:33:46.005Z,20.77
2019-03-27T08:36:14.275Z,20.43
2019-03-27T08:38:42.540Z,16.77
2019-03-27T08:41:10.816Z,22.10
2019-03-27T08:43:39.112Z,20.03
2019-03-27T08:46:07.406Z,20.07
2019-03-27T08:48:39.005Z,21.90
2019-03-27T08:51:05.749Z,19.07
2019-03-27T08:53:34.012Z,27.23
2019-03-27T08:56:02.304Z,17.57
2019-03-27T08:58:30.589Z,21.10
2019-03-27T09:00:58.851Z,18.77
2019-03-27T09:03:27.144Z,22.73
2019-03-27T09:05:55.404Z,17.67
2019-03-27T09:08:23.812Z,15.10
2019-03-27T09:10:52.161Z,17.60
2019-03-27T09:13:20.527Z,15.97
2019-03-27T09:15:48.772Z,20.00
2019-03-27T09:18:17.146Z,13.93
2019-03-27T09:20:45.461Z,15.00
2019-03-27T09:23:13.712Z,13.23
2019-03-27T09:25:42.050Z,14.27
2019-03-27T09:28:10.316Z,13.30
2019-03-27T09:30:38.576Z,15.63
2019-03-27T09:33:06.923Z,11.80
2019-03-27T09:35:35.362Z,11.20
2019-03-27T09:38:03.620Z,11.63
2019-03-27T09:40:31.977Z,12.27
2019-03-27T09:43:00.237Z,11.73
2019-03-27T09:45:28.514Z,13.30
2019-03-27T09:47:56.782Z,11.03
2019-03-27T09:50:25.054Z,10.80
2019-03-27T09:52:53.332Z,10.47
2019-03-27T09:55:21.617Z,11.80
2019-03-27T09:57:49.892Z,10.83
2019-03-27T10:00:21.332Z,13.80
2019-03-27T10:02:49.612Z,15.87
2019-03-27T10:05:17.898Z,13.30
2019-03-27T10:07:46.235Z,13.53
2019-03-27T10:10:14.868Z,11.37
2019-03-27T10:12:43.153Z,13.87
2019-03-27T10:15:13.948Z,27.33
2019-03-27T10:17:43.437Z,11.80
2019-03-27T10:20:13.679Z,12.57
2019-03-27T10:22:41.856Z,13.70
2019-03-27T10:25:10.424Z,15.20
2019-03-27T10:27:38.697Z,11.43
2019-03-27T10:30:07.874Z,8.60
2019-03-27T10:32:36.167Z,7.90
2019-03-27T10:35:06.565Z,6.67
2019-03-27T10:37:34.848Z,4.43
2019-03-27T10:40:04.013Z,5.60
2019-03-27T10:42:32.351Z,7.63
2019-03-27T10:45:00.653Z,6.43
2019-03-27T10:47:28.897Z,8.30
2019-03-27T10:49:57.159Z,7.73
2019-03-27T10:52:28.779Z,8.50
2019-03-27T10:54:58.158Z,8.50
2019-03-27T10:57:26.498Z,7.40
2019-03-27T10:59:54.770Z,7.97
2019-03-27T11:02:23.030Z,8.30
2019-03-27T11:04:51.303Z,9.43
2019-03-27T11:07:19.571Z,8.10
2019-03-27T11:09:47.848Z,9.03
2019-03-27T11:12:16.105Z,7.47
2019-03-27T11:14:44.379Z,13.40
2019-03-27T11:17:12.657Z,8.43
2019-03-27T11:19:40.911Z,9.20
2019-03-27T11:22:09.185Z,9.07
2019-03-27T11:24:37.445Z,9.27
2019-03-27T11:27:05.710Z,9.33
2019-03-27T11:29:33.990Z,6.53
2019-03-27T11:32:02.246Z,11.50
2019-03-27T11:34:30.527Z,12.07
2019-03-27T11:36:58.769Z,7.40
2019-03-27T11:39:36.425Z,10.70
2019-03-27T11:42:06.676Z,9.07
2019-03-27T11:44:35.200Z,10.63
2019-03-27T11:47:03.442Z,6.60
2019-03-27T11:49:31.769Z,9.47
2019-03-27T11:52:00.015Z,5.93
2019-03-27T11:54:28.293Z,6.10
2019-03-27T11:56:56.542Z,7.07
2019-03-27T11:59:24.811Z,8.73
2019-03-27T12:01:53.078Z,8.33
2019-03-27T12:04:21.379Z,6.23
2019-03-27T12:06:49.649Z,9.07
2019-03-27T12:09:17.898Z,9.20
2019-03-27T12:11:46.142Z,8.27
2019-03-27T12:14:14.503Z,5.57
2019-03-27T12:16:42.782Z,6.40
2019-03-27T12:19:11.041Z,6.17
2019-03-27T12:21:39.289Z,7.10
2019-03-27T12:24:07.568Z,8.10
2019-03-27T12:26:35.838Z,8.77
2019-03-27T12:29:04.110Z,4.50
2019-03-27T12:31:32.378Z,6.10
2019-03-27T12:34:00.647Z,4.80
2019-03-27T12:36:28.934Z,5.90
2019-03-27T12:38:57.206Z,6.57
2019-03-27T12:41:25.468Z,6.47
2019-03-27T12:43:53.724Z,5.87
2019-03-27T12:46:21.990Z,5.30
2019-03-27T12:48:50.334Z,6.47
2019-03-27T12:51:18.600Z,8.10
2019-03-27T12:53:46.884Z,7.00
2019-03-27T12:56:15.158Z,5.53
2019-03-27T12:58:43.477Z,7.20
2019-03-27T13:01:11.720Z,6.23
2019-03-27T13:03:40.011Z,7.93
2019-03-27T13:06:08.296Z,6.43
2019-03-27T13:08:36.592Z,7.97
2019-03-27T13:11:04.854Z,6.43
2019-03-27T13:13:33.128Z,7.07
2019-03-27T13:16:01.396Z,7.00
2019-03-27T13:18:29.685Z,5.73
2019-03-27T13:20:58.803Z,9.13
2019-03-27T13:23:27.129Z,5.70
2019-03-27T13:25:55.483Z,7.33
2019-03-27T13:28:23.736Z,6.30
2019-03-27T13:30:52.030Z,6.03
2019-03-27T13:33:20.303Z,6.03
2019-03-27T13:35:48.576Z,5.93
2019-03-27T13:38:16.855Z,7.73
2019-03-27T13:40:45.126Z,7.60
2019-03-27T13:43:14.422Z,7.17
2019-03-27T13:45:42.710Z,7.10
2019-03-27T13:48:11.001Z,6.57
2019-03-27T13:50:39.272Z,7.07
2019-03-27T13:53:07.577Z,6.83
2019-03-27T13:55:35.833Z,9.17
2019-03-27T13:58:04.194Z,6.60
2019-03-27T14:00:32.429Z,6.33
2019-03-27T14:03:00.735Z,7.10
2019-03-27T14:05:29.027Z,10.17
2019-03-27T14:07:57.395Z,5.90
2019-03-27T14:10:25.677Z,6.93
2019-03-27T14:12:53.939Z,7.20
2019-03-27T14:15:22.347Z,8.53
2019-03-27T14:17:50.633Z,7.50
2019-03-27T14:20:20.037Z,6.77
2019-03-27T14:22:48.397Z,6.37
2019-03-27T14:25:17.591Z,6.33
2019-03-27T14:27:45.890Z,5.63
2019-03-27T14:30:17.162Z,6.73
2019-03-27T14:32:45.427Z,5.43
2019-03-27T14:35:15.433Z,5.43
2019-03-27T14:37:43.696Z,7.90
2019-03-27T14:40:12.056Z,7.47
2019-03-27T14:42:40.340Z,6.57
2019-03-27T14:45:09.270Z,6.50
2019-03-27T14:47:37.681Z,7.17
2019-03-27T14:50:07.682Z,5.50
2019-03-27T14:52:35.989Z,11.10
2019-03-27T14:55:07.112Z,16.53
2019-03-27T14:57:35.579Z,6.73
2019-03-27T15:00:09.093Z,8.67
2019-03-27T15:02:37.372Z,5.80
2019-03-27T15:05:07.436Z,6.30
2019-03-27T15:07:35.696Z,9.70
2019-03-27T15:10:06.234Z,7.17
2019-03-27T15:12:34.471Z,11.80
2019-03-27T15:15:02.811Z,7.20
2019-03-27T15:17:31.099Z,6.53
2019-03-27T15:19:59.358Z,8.13
2019-03-27T15:22:27.628Z,6.80
2019-03-27T15:24:55.926Z,6.83
2019-03-27T15:27:24.206Z,7.67
2019-03-27T15:29:52.501Z,5.77
2019-03-27T15:32:20.767Z,9.60
2019-03-27T15:34:49.034Z,8.63
2019-03-27T15:37:17.314Z,7.50
2019-03-27T15:39:45.570Z,7.20
2019-03-27T15:42:13.827Z,5.80
2019-03-27T15:44:42.147Z,10.67
2019-03-27T15:47:10.424Z,7.60
2019-03-27T15:49:38.695Z,9.00
2019-03-27T15:52:06.975Z,7.10
2019-03-27T15:54:35.240Z,8.97
2019-03-27T15:57:03.851Z,7.13
2019-03-27T15:59:32.122Z,7.80
2019-03-27T16:02:00.397Z,8.60
2019-03-27T16:04:28.739Z,8.93
2019-03-27T16:06:57.005Z,11.70
2019-03-27T16:09:25.396Z,7.53
2019-03-27T16:11:53.673Z,9.07
2019-03-27T16:14:21.969Z,9.97
2019-03-27T16:17:06.673Z,7.37
2019-03-27T16:19:20.223Z,6.77
2019-03-27T16:21:48.523Z,8.57
2019-03-27T16:24:16.796Z,9.23
2019-03-27T16:26:49.857Z,7.77
2019-03-27T16:29:15.074Z,7.90
2019-03-27T16:31:43.376Z,13.20
2019-03-27T16:34:11.666Z,9.60
2019-03-27T16:36:39.945Z,6.90
2019-03-27T16:39:08.199Z,9.40
2019-03-27T16:41:36.494Z,7.83
2019-03-27T16:44:04.846Z,8.30
2019-03-27T16:46:33.141Z,10.30
2019-03-27T16:49:01.434Z,7.83
2019-03-27T16:51:30.362Z,9.43
2019-03-27T16:53:59.715Z,8.53
2019-03-27T16:56:28.048Z,8.03
2019-03-27T16:59:04.030Z,9.67
2019-03-27T17:01:32.615Z,7.87
2019-03-27T17:04:00.875Z,8.43
2019-03-27T17:06:29.155Z,10.70
2019-03-27T17:08:57.447Z,10.47
2019-03-27T17:11:25.727Z,8.50
2019-03-27T17:13:53.988Z,7.93
2019-03-27T17:16:22.248Z,7.53
2019-03-27T17:18:50.537Z,8.50
2019-03-27T17:21:18.808Z,10.87
2019-03-27T17:23:47.106Z,11.00
2019-03-27T17:26:15.355Z,11.73
2019-03-27T17:28:43.627Z,8.90
2019-03-27T17:31:11.958Z,7.80
2019-03-27T17:33:40.253Z,7.10
2019-03-27T17:36:08.525Z,9.83
2019-03-27T17:38:36.784Z,8.77
2019-03-27T17:41:05.129Z,10.63
2019-03-27T17:43:33.405Z,12.57
2019-03-27T17:46:01.693Z,8.27
2019-03-27T17:48:29.964Z,11.37
2019-03-27T17:50:58.215Z,8.70
2019-03-27T17:53:31.975Z,7.83
2019-03-27T17:55:56.523Z,12.20
2019-03-27T17:58:24.799Z,11.53
2019-03-27T18:00:53.143Z,7.00
2019-03-27T18:03:21.437Z,10.57
2019-03-27T18:05:49.724Z,9.20
2019-03-27T18:08:17.988Z,11.30
2019-03-27T18:10:46.293Z,11.43
2019-03-27T18:13:14.551Z,9.30
2019-03-27T18:15:42.838Z,9.40
2019-03-27T18:18:11.196Z,6.53
2019-03-27T18:20:39.458Z,9.50
2019-03-27T18:23:07.736Z,12.43
2019-03-27T18:25:36.012Z,9.80
2019-03-27T18:28:04.361Z,9.63
2019-03-27T18:30:32.630Z,9.40
2019-03-27T18:33:00.929Z,9.07
2019-03-27T18:35:29.213Z,10.40
2019-03-27T18:37:57.473Z,11.57
2019-03-27T18:40:25.767Z,9.47
2019-03-27T18:42:54.049Z,9.60
2019-03-27T18:45:22.367Z,14.10
2019-03-27T18:47:50.684Z,11.87
2019-03-27T18:50:19.027Z,9.87
2019-03-27T18:52:47.291Z,9.67
2019-03-27T18:55:25.713Z,10.03
2019-03-27T18:57:59.089Z,13.50
2019-03-27T19:00:15.973Z,12.33
2019-03-27T19:02:44.252Z,12.30
2019-03-27T19:05:12.946Z,10.83
2019-03-27T19:07:41.218Z,11.33
2019-03-27T19:10:09.645Z,10.97
2019-03-27T19:12:37.904Z,9.90
2019-03-27T19:15:07.430Z,12.43
2019-03-27T19:17:35.730Z,10.93
2019-03-27T19:20:06.146Z,13.20
2019-03-27T19:22:34.411Z,8.80
2019-03-27T19:25:02.711Z,9.07
2019-03-27T19:27:31.017Z,13.20
2019-03-27T19:29:59.281Z,13.37
2019-03-27T19:32:27.546Z,12.47
2019-03-27T19:34:55.852Z,12.13
2019-03-27T19:37:26.173Z,12.80
2019-03-27T19:39:54.422Z,11.27
2019-03-27T19:42:22.721Z,9.43
2019-03-27T19:44:51.015Z,10.77
2019-03-27T19:47:19.257Z,8.93
2019-03-27T19:49:47.564Z,13.20
2019-03-27T19:52:15.828Z,9.07
2019-03-27T19:54:44.092Z,7.47
2019-03-27T19:57:12.351Z,9.77
2019-03-27T19:59:40.637Z,8.57
2019-03-27T20:02:09.182Z,8.53
2019-03-27T20:04:37.459Z,9.77
2019-03-27T20:07:05.800Z,8.27
2019-03-27T20:09:34.081Z,12.30
2019-03-27T20:12:02.380Z,11.73
2019-03-27T20:14:30.651Z,15.30
2019-03-27T20:16:58.953Z,7.00
2019-03-27T20:19:29.284Z,7.43
2019-03-27T20:21:57.617Z,7.57
2019-03-27T20:24:25.913Z,9.03
2019-03-27T20:26:54.187Z,6.93
2019-03-27T20:29:22.448Z,7.57
2019-03-27T20:31:50.717Z,7.40
2019-03-27T20:34:18.982Z,7.37
2019-03-27T20:36:47.278Z,8.27
2019-03-27T20:39:15.538Z,8.03
2019-03-27T20:41:43.849Z,6.73
2019-03-27T20:44:12.117Z,8.97
2019-03-27T20:46:40.402Z,8.60
2019-03-27T20:49:08.687Z,8.47
2019-03-27T20:51:36.974Z,9.53
2019-03-27T20:54:05.242Z,7.57
2019-03-27T20:56:33.538Z,8.50
2019-03-27T20:59:03.877Z,7.53
2019-03-27T21:01:31.886Z,8.50
2019-03-27T21:04:00.436Z,8.33
2019-03-27T21:06:28.705Z,8.13
2019-03-27T21:08:56.995Z,8.77
2019-03-27T21:11:25.286Z,8.90
2019-03-27T21:13:53.560Z,9.03
2019-03-27T21:16:21.939Z,7.37
2019-03-27T21:18:50.242Z,10.70
2019-03-27T21:21:18.524Z,15.77
2019-03-27T21:23:46.820Z,6.37
2019-03-27T21:26:15.080Z,7.03
2019-03-27T21:28:43.358Z,13.07
2019-03-27T21:31:11.613Z,6.67
2019-03-27T21:33:39.900Z,7.20
2019-03-27T21:36:08.166Z,11.13
2019-03-27T21:38:36.454Z,7.90
2019-03-27T21:41:04.819Z,10.73
2019-03-27T21:43:34.124Z,8.50
2019-03-27T21:46:02.405Z,12.03
2019-03-27T21:48:30.682Z,11.13
2019-03-27T21:50:58.972Z,9.77
2019-03-27T21:53:27.231Z,7.60
2019-03-27T21:55:55.523Z,13.47
2019-03-27T21:58:23.805Z,12.80
2019-03-27T22:00:52.214Z,10.57
2019-03-27T22:03:20.567Z,9.33
2019-03-27T22:05:48.854Z,9.40
2019-03-27T22:08:17.307Z,10.97
2019-03-27T22:10:45.571Z,11.03
2019-03-27T22:13:13.879Z,11.37
2019-03-27T22:15:42.154Z,13.77
2019-03-27T22:18:10.424Z,10.60
2019-03-27T22:20:39.809Z,10.13
2019-03-27T22:23:08.368Z,10.90
2019-03-27T22:25:36.734Z,8.83
2019-03-27T22:28:04.984Z,10.77
2019-03-27T22:30:33.247Z,10.70
2019-03-27T22:33:01.519Z,11.50
2019-03-27T22:35:29.802Z,9.20
2019-03-27T22:37:58.061Z,8.90
2019-03-27T22:40:26.363Z,15.33
2019-03-27T22:42:57.018Z,10.80
2019-03-27T22:45:26.867Z,15.77
2019-03-27T22:47:55.165Z,9.53
2019-03-27T22:50:23.436Z,10.77
2019-03-27T22:52:51.751Z,10.17
2019-03-27T22:55:20.017Z,11.07
2019-03-27T22:57:48.283Z,9.30
2019-03-27T23:00:16.813Z,10.70
2019-03-27T23:02:45.260Z,10.37
2019-03-27T23:05:13.522Z,9.33
2019-03-27T23:07:41.808Z,10.37
2019-03-27T23:10:13.638Z,10.83
2019-03-27T23:12:43.766Z,10.93
2019-03-27T23:15:12.068Z,10.27
2019-03-27T23:17:40.335Z,10.00
2019-03-27T23:20:09.221Z,18.07
2019-03-27T23:22:37.444Z,11.27
2019-03-27T23:25:06.375Z,10.47
2019-03-27T23:27:36.204Z,10.70
2019-03-27T23:30:08.711Z,9.90
2019-03-27T23:32:37.141Z,10.90
2019-03-27T23:35:08.531Z,16.00
2019-03-27T23:37:36.938Z,12.43
2019-03-27T23:40:06.169Z,11.70
2019-03-27T23:42:36.057Z,13.23
2019-03-27T23:45:05.769Z,10.73
2019-03-27T23:47:37.070Z,12.33
2019-03-27T23:50:10.327Z,10.97
2019-03-27T23:52:38.578Z,15.40
2019-03-27T23:55:07.028Z,9.90
2019-03-27T23:57:35.312Z,13.00
